Time;durP1;ratioP1;P1;durP2;ratioP2;P2;SDS_P1;SDS_P2;PMS_P1;PMS_P2;Temp;Humidity;BMP_temperature;BMP_pressure;BME280_temperature;BME280_humidity;BME280_pressure;Samples;Min_cycle;Max_cycle;Signal;HPM_P1;HPM_P2
2020/12/01 00:01:33;;;;;;;34.83;24.27;;;6.50;99.90;;;;;;5090440;28;20206;-68
2020/12/01 00:04:00;;;;;;;34.17;25.90;;;6.60;99.90;;;;;;5090030;28;20210;-69
2020/12/01 00:06:31;;;;;;;37.40;26.23;;;6.60;99.90;;;;;;5089343;28;20210;-69
2020/12/01 00:08:57;;;;;;;38.77;27.60;;;6.50;99.90;;;;;;5090259;28;20206;-68
2020/12/01 00:11:24;;;;;;;38.17;27.87;;;6.50;99.90;;;;;;5075224;28;20207;-68
2020/12/01 00:13:50;;;;;;;37.47;25.87;;;6.40;99.90;;;;;;5089828;28;20742;-68
2020/12/01 00:16:17;;;;;;;36.00;26.03;;;6.50;99.90;;;;;;5089368;28;20706;-67
2020/12/01 00:18:43;;;;;;;41.40;27.87;;;6.50;99.90;;;;;;5089862;28;20611;-69
2020/12/01 00:21:11;;;;;;;35.63;25.73;;;6.50;99.90;;;;;;5089464;28;20209;-68
2020/12/01 00:23:39;;;;;;;42.30;28.97;;;6.60;99.90;;;;;;5092247;28;20209;-68
2020/12/01 00:26:06;;;;;;;37.87;26.30;;;6.60;99.90;;;;;;5094178;28;20232;-67
2020/12/01 00:28:32;;;;;;;37.43;27.17;;;6.50;99.90;;;;;;5093321;28;20197;-68
2020/12/01 00:30:59;;;;;;;36.50;26.60;;;6.40;99.90;;;;;;5093516;28;20251;-67
2020/12/01 00:33:26;;;;;;;39.40;26.57;;;6.20;99.90;;;;;;5092714;28;20601;-71
2020/12/01 00:35:52;;;;;;;41.77;28.00;;;6.30;99.90;;;;;;5093638;28;20258;-67
2020/12/01 00:38:20;;;;;;;42.80;26.80;;;6.30;99.90;;;;;;5092826;28;20669;-67
2020/12/01 00:40:48;;;;;;;36.80;27.60;;;6.40;99.90;;;;;;5093289;28;20259;-66
2020/12/01 00:43:15;;;;;;;37.27;25.00;;;6.50;99.90;;;;;;5092609;28;20201;-70
2020/12/01 00:45:43;;;;;;;38.77;26.50;;;6.60;99.90;;;;;;5093026;28;20209;-67
2020/12/01 00:48:09;;;;;;;42.53;26.70;;;6.60;99.90;;;;;;5092810;28;20206;-72
2020/12/01 00:50:36;;;;;;;35.03;24.83;;;6.70;99.90;;;;;;5093131;28;20209;-67
2020/12/01 00:53:02;;;;;;;36.97;25.70;;;6.70;99.90;;;;;;5093423;28;20205;-67
2020/12/01 00:55:29;;;;;;;34.50;24.60;;;6.60;99.90;;;;;;5092898;28;20202;-68
2020/12/01 00:57:56;;;;;;;37.10;24.67;;;6.60;99.90;;;;;;5092465;28;20282;-71
2020/12/01 01:00:24;;;;;;;33.27;25.03;;;6.60;99.90;;;;;;5092629;28;20197;-67
2020/12/01 01:02:51;;;;;;;38.60;26.30;;;6.70;99.90;;;;;;5092479;28;20235;-67
2020/12/01 01:05:18;;;;;;;37.60;25.67;;;6.70;99.90;;;;;;5092777;28;20255;-68
2020/12/01 01:07:44;;;;;;;32.57;23.87;;;6.70;99.90;;;;;;5092887;28;20629;-67
2020/12/01 01:10:16;;;;;;;32.83;23.83;;;6.80;99.90;;;;;;5092415;28;20267;-75
2020/12/01 01:12:43;;;;;;;35.33;25.00;;;6.70;99.90;;;;;;5092709;28;20266;-68
2020/12/01 01:15:10;;;;;;;37.93;23.00;;;6.70;99.90;;;;;;5092019;28;20259;-75
2020/12/01 01:17:37;;;;;;;35.23;24.33;;;6.70;99.90;;;;;;5092756;28;20287;-67
2020/12/01 01:20:04;;;;;;;31.70;23.40;;;6.40;99.90;;;;;;5092938;28;20624;-74
2020/12/01 01:22:31;;;;;;;36.03;24.80;;;6.30;99.90;;;;;;5092495;28;20228;-68
2020/12/01 01:24:57;;;;;;;34.33;24.20;;;6.30;99.90;;;;;;5092315;28;20592;-66
2020/12/01 01:27:24;;;;;;;36.67;26.03;;;6.20;99.90;;;;;;5092112;28;20680;-67
2020/12/01 01:29:50;;;;;;;32.33;22.67;;;6.00;99.90;;;;;;5091964;28;20672;-68
2020/12/01 01:32:17;;;;;;;31.70;22.23;;;5.90;99.90;;;;;;5091989;28;20232;-67
2020/12/01 01:34:44;;;;;;;33.93;22.87;;;6.00;99.90;;;;;;5092088;28;20742;-67
2020/12/01 01:37:11;;;;;;;36.43;23.07;;;6.00;99.90;;;;;;5091350;28;20655;-67
2020/12/01 01:39:37;;;;;;;30.53;22.23;;;6.00;99.90;;;;;;5092272;28;20202;-69
2020/12/01 01:42:05;;;;;;;31.80;23.77;;;5.90;99.90;;;;;;5092384;28;20326;-69
2020/12/01 01:44:32;;;;;;;30.37;24.10;;;5.80;99.90;;;;;;5091701;28;20282;-68
2020/12/01 01:47:05;;;;;;;32.27;22.23;;;5.80;99.90;;;;;;5092316;28;20210;-67
2020/12/01 01:49:37;;;;;;;32.63;23.60;;;5.80;99.90;;;;;;5092217;28;20213;-67
2020/12/01 01:52:05;;;;;;;35.07;23.60;;;5.70;99.90;;;;;;5092433;28;20205;-67
2020/12/01 01:54:31;;;;;;;37.57;24.23;;;5.70;99.90;;;;;;5091300;28;20231;-68
2020/12/01 01:57:02;;;;;;;32.50;22.43;;;5.60;99.90;;;;;;5091884;28;20225;-66
2020/12/01 01:59:31;;;;;;;33.63;24.37;;;5.60;99.90;;;;;;5091089;28;20628;-67
2020/12/01 02:01:58;;;;;;;36.03;25.07;;;5.60;99.90;;;;;;5091801;28;20231;-67
2020/12/01 02:04:25;;;;;;;38.83;24.90;;;5.70;99.90;;;;;;5091308;28;20206;-68
2020/12/01 02:06:56;;;;;;;35.17;24.60;;;6.00;99.90;;;;;;5091519;28;20213;-67
2020/12/01 02:09:27;;;;;;;35.57;23.83;;;6.10;99.90;;;;;;5090824;28;20202;-67
2020/12/01 02:11:53;;;;;;;34.87;25.10;;;6.30;99.90;;;;;;5091808;28;20236;-70
2020/12/01 02:14:23;;;;;;;36.70;23.67;;;6.30;99.90;;;;;;5091314;28;20634;-67
2020/12/01 02:16:52;;;;;;;32.83;23.00;;;6.30;99.90;;;;;;5091068;28;20251;-68
2020/12/01 02:19:22;;;;;;;28.20;21.50;;;6.50;99.90;;;;;;5091018;28;20733;-67
2020/12/01 02:21:48;;;;;;;33.37;23.07;;;6.60;99.90;;;;;;5090997;28;20274;-66
2020/12/01 02:24:18;;;;;;;31.87;22.73;;;6.70;99.90;;;;;;5091042;28;20536;-67
2020/12/01 02:26:48;;;;;;;33.10;24.60;;;6.80;99.90;;;;;;5091035;28;20213;-67
2020/12/01 02:29:18;;;;;;;33.90;23.90;;;6.90;99.90;;;;;;5090966;28;20198;-67
2020/12/01 02:31:45;;;;;;;32.40;23.10;;;6.90;99.90;;;;;;5091181;28;20209;-67
2020/12/01 02:34:14;;;;;;;30.53;22.60;;;6.80;99.90;;;;;;5090896;28;20220;-67
2020/12/01 02:36:41;;;;;;;32.87;23.57;;;6.80;99.90;;;;;;5091059;28;20233;-67
2020/12/01 02:39:09;;;;;;;34.30;22.33;;;6.90;99.90;;;;;;5090562;28;20578;-67
2020/12/01 02:41:36;;;;;;;31.93;22.33;;;6.90;99.90;;;;;;5091064;28;20676;-67
2020/12/01 02:44:04;;;;;;;33.53;23.53;;;6.80;99.90;;;;;;5091165;28;20583;-68
2020/12/01 02:46:35;;;;;;;32.03;22.00;;;6.90;99.90;;;;;;5090503;28;20209;-68
2020/12/01 02:49:03;;;;;;;33.47;22.43;;;6.90;99.90;;;;;;5090954;28;20217;-68
2020/12/01 02:51:30;;;;;;;34.17;24.87;;;6.90;99.90;;;;;;5090847;28;20205;-67
2020/12/01 02:53:56;;;;;;;33.80;23.30;;;6.90;99.90;;;;;;5090865;28;20205;-66
2020/12/01 02:56:23;;;;;;;33.93;21.70;;;7.00;99.90;;;;;;5090299;28;20326;-67
2020/12/01 02:58:49;;;;;;;31.67;21.93;;;7.00;99.90;;;;;;5090716;28;20251;-66
2020/12/01 03:01:17;;;;;;;30.83;21.03;;;7.00;99.90;;;;;;5090324;28;20267;-67
2020/12/01 03:03:43;;;;;;;31.93;22.57;;;7.10;99.90;;;;;;5090727;28;20634;-66
2020/12/01 03:06:13;;;;;;;29.17;21.83;;;7.10;99.90;;;;;;5078579;28;20256;-69
2020/12/01 03:08:39;;;;;;;28.13;19.63;;;7.20;99.90;;;;;;5068540;28;20659;-66
2020/12/01 03:11:07;;;;;;;28.87;21.40;;;7.20;99.90;;;;;;5070434;28;20198;-67
2020/12/01 03:13:34;;;;;;;29.03;21.23;;;7.20;99.90;;;;;;5070795;28;20202;-67
2020/12/01 03:16:04;;;;;;;30.27;20.67;;;7.20;99.90;;;;;;5070178;28;20217;-67
2020/12/01 03:18:31;;;;;;;27.10;19.57;;;7.20;99.90;;;;;;5069889;28;20256;-66
2020/12/01 03:20:57;;;;;;;30.63;22.70;;;7.20;99.90;;;;;;5070120;28;20279;-68
2020/12/01 03:23:24;;;;;;;27.13;19.53;;;7.20;99.90;;;;;;5069771;28;20335;-67
2020/12/01 03:25:50;;;;;;;26.17;19.67;;;7.20;99.90;;;;;;5070388;28;20210;-68
2020/12/01 03:28:17;;;;;;;32.13;20.60;;;7.30;99.90;;;;;;5070112;28;20241;-71
2020/12/01 03:30:43;;;;;;;30.70;20.77;;;7.20;99.90;;;;;;5056014;28;20739;-69
2020/12/01 03:33:10;;;;;;;28.03;20.97;;;7.20;99.90;;;;;;5070092;28;20206;-68
2020/12/01 03:35:37;;;;;;;28.63;21.07;;;7.20;99.90;;;;;;5070062;28;20280;-68
2020/12/01 03:38:04;;;;;;;29.90;21.10;;;7.20;99.90;;;;;;5070683;28;20233;-68
2020/12/01 03:40:30;;;;;;;29.37;21.73;;;7.20;99.90;;;;;;5069821;28;20210;-68
2020/12/01 03:42:57;;;;;;;28.13;19.80;;;7.10;99.90;;;;;;5070193;28;20275;-67
2020/12/01 03:45:23;;;;;;;27.27;20.53;;;7.10;99.90;;;;;;5069425;28;20210;-68
2020/12/01 03:47:54;;;;;;;24.87;18.93;;;7.10;99.90;;;;;;5070540;28;20258;-67
2020/12/01 03:50:21;;;;;;;30.33;20.53;;;7.00;99.90;;;;;;5069740;28;20203;-71
2020/12/01 03:52:49;;;;;;;29.03;20.37;;;7.00;99.90;;;;;;5070010;28;20199;-68
2020/12/01 03:55:15;;;;;;;29.20;20.10;;;7.00;99.90;;;;;;5069565;28;20662;-68
2020/12/01 03:57:42;;;;;;;28.50;18.63;;;7.00;99.90;;;;;;5070531;28;20279;-66
2020/12/01 04:00:09;;;;;;;30.27;20.03;;;6.90;99.90;;;;;;5073572;28;20206;-67
2020/12/01 04:02:36;;;;;;;28.13;21.77;;;6.80;99.90;;;;;;5073791;28;20206;-66
2020/12/01 04:05:03;;;;;;;30.67;21.10;;;6.80;99.90;;;;;;5074091;28;20210;-67
2020/12/01 04:07:29;;;;;;;27.30;19.80;;;6.70;99.90;;;;;;5073405;28;20236;-67
2020/12/01 04:09:57;;;;;;;28.53;20.13;;;6.70;99.90;;;;;;5073875;28;20263;-67
2020/12/01 04:12:24;;;;;;;28.13;19.73;;;6.70;99.90;;;;;;5073086;28;20203;-68
2020/12/01 04:14:50;;;;;;;29.50;21.10;;;6.70;99.90;;;;;;5073238;28;20210;-67
2020/12/01 04:17:17;;;;;;;24.97;19.53;;;6.60;99.90;;;;;;5073224;28;20241;-67
2020/12/01 04:19:44;;;;;;;26.03;20.03;;;6.70;99.90;;;;;;5073126;28;20206;-67
2020/12/01 04:22:11;;;;;;;26.97;21.73;;;6.70;99.90;;;;;;5073078;28;20198;-67
2020/12/01 04:24:38;;;;;;;27.90;21.27;;;6.80;99.90;;;;;;5073195;28;20251;-66
2020/12/01 04:27:06;;;;;;;28.13;21.63;;;6.70;99.90;;;;;;5073831;28;20252;-67
2020/12/01 04:29:32;;;;;;;34.37;22.83;;;6.70;99.90;;;;;;5073930;28;20214;-67
2020/12/01 04:31:59;;;;;;;28.00;20.33;;;6.70;99.90;;;;;;5072941;28;20731;-66
2020/12/01 04:34:25;;;;;;;28.97;20.73;;;6.70;99.90;;;;;;5072904;28;20214;-66
2020/12/01 04:36:52;;;;;;;33.70;21.63;;;6.70;99.90;;;;;;5073136;28;20226;-66
2020/12/01 04:39:18;;;;;;;28.20;20.97;;;6.70;99.90;;;;;;5072857;28;20256;-66
2020/12/01 04:41:45;;;;;;;29.73;21.10;;;6.70;99.90;;;;;;5072794;28;20210;-69
2020/12/01 04:44:25;;;;;;;28.27;20.60;;;6.70;99.90;;;;;;5072993;28;20202;-67
2020/12/01 04:46:53;;;;;;;28.90;21.90;;;6.60;99.90;;;;;;5072723;28;20677;-67
2020/12/01 04:49:25;;;;;;;26.17;19.03;;;6.60;99.90;;;;;;5072469;28;20202;-66
2020/12/01 04:52:15;;;;;;;30.33;22.50;;;6.60;99.90;;;;;;5072861;28;20198;-67
2020/12/01 04:55:14;;;;;;;29.13;21.13;;;6.60;99.90;;;;;;5073015;28;20279;-67
2020/12/01 04:58:07;;;;;;;28.47;21.10;;;6.60;99.90;;;;;;5072978;28;20222;-66
2020/12/01 05:00:47;;;;;;;32.77;21.80;;;6.60;99.90;;;;;;5073037;28;20271;-67
2020/12/01 05:03:25;;;;;;;31.60;21.40;;;6.60;99.90;;;;;;5072327;28;20624;-67
2020/12/01 05:06:28;;;;;;;30.10;21.43;;;6.60;99.90;;;;;;5072416;28;20762;-67
2020/12/01 05:08:58;;;;;;;27.93;20.17;;;6.60;99.90;;;;;;5072133;28;20202;-66
2020/12/01 05:11:33;;;;;;;29.23;21.77;;;6.60;99.90;;;;;;5066542;28;20203;-68
2020/12/01 05:14:12;;;;;;;31.93;20.40;;;6.60;99.90;;;;;;5067057;28;20205;-71
2020/12/01 05:17:08;;;;;;;29.67;21.67;;;6.60;99.90;;;;;;5071571;28;20622;-70
2020/12/01 05:19:40;;;;;;;29.30;19.90;;;6.80;99.90;;;;;;5072549;28;20730;-71
2020/12/01 05:22:06;;;;;;;29.53;20.47;;;6.90;99.90;;;;;;5072427;28;20206;-67
2020/12/01 05:24:40;;;;;;;32.40;19.53;;;6.90;99.90;;;;;;5072854;28;20210;-67
2020/12/01 05:27:17;;;;;;;29.37;21.23;;;6.90;99.90;;;;;;5072245;28;20301;-68
2020/12/01 05:29:43;;;;;;;26.67;19.37;;;6.90;99.90;;;;;;5059996;28;20228;-73
2020/12/01 05:32:11;;;;;;;28.43;20.90;;;6.90;99.90;;;;;;5071620;28;20665;-68
2020/12/01 05:34:37;;;;;;;27.70;20.50;;;6.90;99.90;;;;;;5072149;28;20624;-73
2020/12/01 05:37:06;;;;;;;26.90;19.93;;;6.80;99.90;;;;;;5072345;28;20234;-69
2020/12/01 05:39:34;;;;;;;25.83;19.63;;;6.80;99.90;;;;;;5072210;28;20249;-75
2020/12/01 05:42:03;;;;;;;29.23;20.67;;;6.80;99.90;;;;;;5072216;28;20209;-68
2020/12/01 05:44:32;;;;;;;27.23;21.03;;;6.80;99.90;;;;;;5071967;28;20202;-68
2020/12/01 05:47:07;;;;;;;26.93;21.63;;;6.90;99.90;;;;;;5071451;28;20249;-69
2020/12/01 05:49:40;;;;;;;29.07;20.60;;;6.90;99.90;;;;;;5071984;28;20205;-72
2020/12/01 05:52:16;;;;;;;25.73;19.40;;;7.00;99.90;;;;;;5071785;28;20252;-69
2020/12/01 05:54:44;;;;;;;28.33;20.80;;;7.00;99.90;;;;;;5071346;28;20231;-68
2020/12/01 05:57:20;;;;;;;25.43;20.00;;;7.00;99.90;;;;;;5070868;28;20762;-69
2020/12/01 05:59:54;;;;;;;28.87;21.17;;;7.00;99.90;;;;;;5071601;28;20669;-68
2020/12/01 06:02:29;;;;;;;26.83;20.27;;;7.00;99.90;;;;;;5070971;28;20235;-68
2020/12/01 06:04:58;;;;;;;30.40;21.43;;;7.00;99.90;;;;;;5070076;28;20209;-67
2020/12/01 06:07:27;;;;;;;33.47;20.50;;;7.10;99.90;;;;;;5067389;28;20677;-68
2020/12/01 06:10:17;;;;;;;28.27;21.07;;;7.10;99.90;;;;;;5071363;28;20673;-68
2020/12/01 06:13:25;;;;;;;28.70;21.50;;;7.20;99.90;;;;;;5071067;28;20259;-68
2020/12/01 06:16:13;;;;;;;29.77;21.10;;;7.10;99.90;;;;;;5068975;28;20299;-68
2020/12/01 06:18:50;;;;;;;28.77;20.73;;;7.00;99.90;;;;;;5069456;28;20653;-70
2020/12/01 06:21:38;;;;;;;29.87;22.20;;;6.90;99.90;;;;;;5069753;28;20252;-68
2020/12/01 06:24:47;;;;;;;28.87;21.67;;;6.90;99.90;;;;;;5071365;28;20225;-67
2020/12/01 06:27:50;;;;;;;31.67;22.47;;;6.90;99.90;;;;;;5058182;28;20236;-67
2020/12/01 06:30:49;;;;;;;31.17;21.20;;;6.90;99.90;;;;;;5070122;28;20657;-67
2020/12/01 06:34:02;;;;;;;34.53;21.97;;;6.80;99.90;;;;;;5066781;28;20202;-68
2020/12/01 06:37:04;;;;;;;34.30;24.23;;;6.80;99.90;;;;;;5070448;28;20565;-67
2020/12/01 06:40:03;;;;;;;31.13;22.80;;;6.80;99.90;;;;;;5070832;28;20209;-70
2020/12/01 06:42:38;;;;;;;31.67;23.33;;;6.80;99.90;;;;;;5068920;28;20268;-71
2020/12/01 06:45:14;;;;;;;31.13;23.50;;;6.80;99.90;;;;;;5070674;28;20753;-70
2020/12/01 06:47:41;;;;;;;32.27;23.10;;;6.90;99.90;;;;;;5070295;28;20259;-72
2020/12/01 06:50:14;;;;;;;35.97;25.57;;;6.90;99.90;;;;;;5065409;28;20206;-69
2020/12/01 06:52:42;;;;;;;27.10;21.43;;;7.00;99.90;;;;;;5070804;28;20575;-71
2020/12/01 06:55:39;;;;;;;32.93;23.00;;;7.20;99.90;;;;;;5070532;28;20202;-72
2020/12/01 06:58:08;;;;;;;33.40;22.67;;;7.20;99.90;;;;;;5070009;28;20771;-69
2020/12/01 07:00:35;;;;;;;35.70;23.90;;;7.20;99.90;;;;;;5070864;28;20216;-77
2020/12/01 07:03:09;;;;;;;38.23;25.07;;;7.20;99.90;;;;;;5070929;28;20206;-76
2020/12/01 07:05:36;;;;;;;38.50;24.50;;;7.20;99.90;;;;;;5070505;28;20668;-71
2020/12/01 07:08:14;;;;;;;30.63;22.30;;;7.20;99.90;;;;;;5071054;28;20700;-80
2020/12/01 07:10:40;;;;;;;31.07;24.07;;;7.20;99.90;;;;;;5070626;28;20267;-77
2020/12/01 07:13:20;;;;;;;29.03;21.80;;;7.20;99.90;;;;;;5070488;28;20206;-80
2020/12/01 07:15:48;;;;;;;37.27;23.53;;;7.20;99.90;;;;;;5070212;28;20214;-78
2020/12/01 07:18:22;;;;;;;36.60;21.67;;;7.30;99.90;;;;;;5069957;28;20655;-76
2020/12/01 07:21:16;;;;;;;35.90;24.87;;;7.30;99.90;;;;;;5070727;28;20198;-77
2020/12/01 07:23:51;;;;;;;33.20;24.40;;;7.30;99.90;;;;;;5067444;28;20202;-74
2020/12/01 07:26:27;;;;;;;33.37;23.63;;;7.30;99.90;;;;;;5057539;28;20554;-74
2020/12/01 07:29:20;;;;;;;31.07;23.77;;;7.30;99.90;;;;;;5056671;28;20201;-75
2020/12/01 07:31:47;;;;;;;32.83;24.73;;;7.40;99.90;;;;;;5058555;28;20194;-73
2020/12/01 07:34:27;;;;;;;30.90;22.37;;;7.40;99.90;;;;;;5064965;28;20214;-73
2020/12/01 07:37:08;;;;;;;31.57;22.50;;;7.50;99.90;;;;;;5073900;28;20247;-71
2020/12/01 07:39:36;;;;;;;31.23;21.63;;;7.50;99.90;;;;;;5074778;28;20205;-75
2020/12/01 07:42:04;;;;;;;26.40;20.80;;;7.50;99.90;;;;;;5071212;28;20263;-72
2020/12/01 07:44:32;;;;;;;32.83;23.30;;;7.60;99.90;;;;;;5067648;28;20210;-73
2020/12/01 07:47:03;;;;;;;33.07;22.13;;;7.60;99.90;;;;;;5066208;28;20202;-74
2020/12/01 07:49:30;;;;;;;27.10;21.77;;;7.60;99.90;;;;;;5066830;28;20202;-73
2020/12/01 07:52:06;;;;;;;34.80;23.70;;;7.70;99.90;;;;;;5073574;28;20212;-75
2020/12/01 07:54:35;;;;;;;29.70;20.77;;;7.80;99.90;;;;;;5073869;28;20209;-75
2020/12/01 07:57:12;;;;;;;33.30;23.60;;;7.80;99.90;;;;;;5062116;28;20202;-74
2020/12/01 07:59:43;;;;;;;31.47;22.17;;;7.90;99.90;;;;;;5072202;28;20205;-74
2020/12/01 08:02:10;;;;;;;38.87;23.03;;;7.90;99.90;;;;;;5071505;28;20198;-73
2020/12/01 08:04:37;;;;;;;31.53;20.80;;;8.00;99.90;;;;;;5067875;28;20216;-74
2020/12/01 08:07:04;;;;;;;30.87;20.93;;;8.00;99.90;;;;;;5073836;28;20263;-76
2020/12/01 08:09:31;;;;;;;30.43;20.53;;;8.10;99.90;;;;;;5065131;28;20237;-74
2020/12/01 08:12:03;;;;;;;35.67;23.27;;;8.20;99.90;;;;;;5073169;28;20669;-74
2020/12/01 08:14:30;;;;;;;30.87;20.87;;;8.20;99.90;;;;;;5067853;28;20214;-73
2020/12/01 08:17:03;;;;;;;28.77;20.63;;;8.20;99.90;;;;;;5073226;28;20569;-74
2020/12/01 08:19:31;;;;;;;35.33;23.10;;;8.20;99.90;;;;;;5066947;28;20251;-72
2020/12/01 08:21:58;;;;;;;29.67;20.27;;;8.30;99.90;;;;;;5059860;28;20198;-72
2020/12/01 08:24:28;;;;;;;27.20;20.57;;;8.40;99.90;;;;;;5062567;28;20586;-72
2020/12/01 08:27:04;;;;;;;32.77;23.17;;;8.40;99.90;;;;;;5072007;28;20271;-73
2020/12/01 08:29:33;;;;;;;29.97;21.20;;;8.40;99.90;;;;;;5072991;28;20210;-72
2020/12/01 08:32:06;;;;;;;35.27;21.70;;;8.50;99.90;;;;;;5073312;28;20621;-73
2020/12/01 08:34:44;;;;;;;31.83;22.53;;;8.50;99.90;;;;;;5068495;28;20202;-73
2020/12/01 08:37:17;;;;;;;29.50;21.87;;;8.50;99.90;;;;;;5059071;28;20577;-72
2020/12/01 08:40:11;;;;;;;29.83;20.20;;;8.50;99.90;;;;;;5062970;28;20195;-73
2020/12/01 08:42:48;;;;;;;31.40;22.03;;;8.60;99.90;;;;;;5069245;28;20206;-71
2020/12/01 08:45:41;;;;;;;33.57;20.67;;;8.60;99.90;;;;;;5067335;28;20296;-71
2020/12/01 08:48:20;;;;;;;32.17;19.93;;;8.70;99.90;;;;;;5066266;28;20690;-71
2020/12/01 08:50:46;;;;;;;27.00;20.17;;;8.90;99.90;;;;;;5072576;28;20275;-71
2020/12/01 08:53:15;;;;;;;26.37;19.77;;;9.00;99.90;;;;;;5066593;28;20206;-71
2020/12/01 08:55:49;;;;;;;24.57;18.80;;;9.00;99.90;;;;;;5066725;28;20202;-72
2020/12/01 08:58:23;;;;;;;29.40;19.60;;;9.00;99.90;;;;;;5060452;28;20363;-71
2020/12/01 09:00:58;;;;;;;29.97;19.67;;;9.00;99.90;;;;;;5071870;28;20226;-72
2020/12/01 09:03:25;;;;;;;24.57;18.07;;;9.00;99.90;;;;;;5068364;28;20197;-72
2020/12/01 09:05:52;;;;;;;23.40;18.67;;;9.10;99.90;;;;;;5072387;28;20198;-72
2020/12/01 09:08:37;;;;;;;24.57;18.07;;;9.20;99.90;;;;;;5072257;28;20280;-72
2020/12/01 09:11:33;;;;;;;27.47;18.23;;;9.20;99.90;;;;;;5068177;28;20198;-72
2020/12/01 09:14:07;;;;;;;26.00;17.40;;;9.20;99.90;;;;;;5064879;28;20203;-70
2020/12/01 09:16:47;;;;;;;29.40;17.83;;;9.20;99.90;;;;;;5060915;28;20241;-72
2020/12/01 09:19:36;;;;;;;24.90;16.97;;;9.20;99.90;;;;;;5055950;28;20323;-70
2020/12/01 09:22:07;;;;;;;21.60;17.43;;;9.20;99.90;;;;;;5061363;28;20237;-71
2020/12/01 09:24:34;;;;;;;26.33;18.87;;;9.20;99.90;;;;;;5062075;28;20211;-72
2020/12/01 09:27:03;;;;;;;23.50;17.87;;;9.30;99.90;;;;;;5072325;28;20202;-72
2020/12/01 09:29:30;;;;;;;24.70;17.53;;;9.20;99.90;;;;;;5071647;28;20213;-71
2020/12/01 09:31:57;;;;;;;23.60;17.87;;;9.30;99.90;;;;;;5068050;28;20206;-73
2020/12/01 09:34:24;;;;;;;24.13;16.80;;;9.30;99.90;;;;;;5062421;28;20202;-71
2020/12/01 09:36:57;;;;;;;19.00;14.10;;;9.40;99.90;;;;;;5069909;28;20202;-72
2020/12/01 09:39:23;;;;;;;23.80;16.53;;;9.50;99.90;;;;;;5057470;28;20718;-72
2020/12/01 09:41:59;;;;;;;28.23;17.73;;;9.80;99.90;;;;;;5063040;28;20217;-71
2020/12/01 09:44:43;;;;;;;20.70;16.73;;;10.00;99.90;;;;;;5059629;28;20648;-71
2020/12/01 09:47:13;;;;;;;22.27;16.10;;;9.80;99.90;;;;;;5067222;28;20194;-71
2020/12/01 09:49:41;;;;;;;19.20;15.63;;;9.80;99.90;;;;;;5071844;28;20206;-72
2020/12/01 09:52:11;;;;;;;25.10;15.37;;;9.70;99.90;;;;;;5071312;28;20673;-72
2020/12/01 09:54:44;;;;;;;24.53;16.43;;;9.70;99.90;;;;;;5071422;28;20739;-72
2020/12/01 09:57:14;;;;;;;18.87;14.90;;;9.70;99.90;;;;;;5069287;28;20221;-71
2020/12/01 10:00:00;;;;;;;20.23;15.17;;;9.60;99.90;;;;;;5061317;28;20301;-71
2020/12/01 10:05:35;;;;;;;32.20;16.90;;;9.60;99.90;;;;;;5068562;28;20304;-72
2020/12/01 10:08:19;;;;;;;25.27;18.03;;;9.30;99.90;;;;;;5064570;28;20207;-72
2020/12/01 10:11:05;;;;;;;25.93;17.70;;;9.20;99.90;;;;;;5065696;28;20203;-72
2020/12/01 10:13:44;;;;;;;25.03;17.93;;;9.20;99.90;;;;;;5064468;28;20201;-72
2020/12/01 10:35:40;;;;;;;23.73;17.67;;;9.30;99.90;;;;;;5057849;28;20240;-69
2020/12/01 10:38:07;;;;;;;26.33;18.03;;;9.20;99.90;;;;;;5063803;28;20248;-69
2020/12/01 10:40:34;;;;;;;25.70;19.57;;;9.20;99.90;;;;;;5070787;28;20255;-70
2020/12/01 10:43:00;;;;;;;22.47;16.90;;;9.30;99.90;;;;;;5070349;28;20236;-71
2020/12/01 10:45:28;;;;;;;29.47;17.57;;;9.30;99.90;;;;;;5070145;28;20572;-70
2020/12/01 10:47:55;;;;;;;24.87;17.03;;;9.20;99.90;;;;;;5070585;28;20202;-71
2020/12/01 10:50:24;;;;;;;24.53;18.90;;;9.20;99.90;;;;;;5061699;28;20248;-70
2020/12/01 10:52:50;;;;;;;22.10;16.40;;;9.20;99.90;;;;;;5061779;28;20202;-70
2020/12/01 10:55:25;;;;;;;20.13;14.90;;;9.30;99.90;;;;;;5059794;28;20202;-70
2020/12/01 10:57:52;;;;;;;21.23;15.33;;;9.30;99.90;;;;;;5059691;28;20817;-70
2020/12/01 11:00:20;;;;;;;23.33;16.67;;;9.30;99.90;;;;;;5054830;28;20319;-71
2020/12/01 11:02:46;;;;;;;19.97;16.80;;;9.30;99.90;;;;;;5059514;28;20263;-71
2020/12/01 11:05:18;;;;;;;23.37;17.27;;;9.40;99.90;;;;;;5061049;28;20211;-71
2020/12/01 11:07:44;;;;;;;22.73;16.37;;;9.50;99.90;;;;;;5067999;28;20198;-72
2020/12/01 11:10:10;;;;;;;23.73;15.70;;;9.50;99.90;;;;;;5060965;28;20199;-72
2020/12/01 11:12:38;;;;;;;20.07;15.93;;;9.70;99.90;;;;;;5069251;28;20230;-70
2020/12/01 11:15:05;;;;;;;20.63;15.37;;;9.90;99.90;;;;;;5064888;28;20666;-71
2020/12/01 11:17:32;;;;;;;24.87;17.17;;;10.10;99.90;;;;;;5062315;28;20202;-70
2020/12/01 11:19:59;;;;;;;22.77;16.23;;;10.10;99.90;;;;;;5070068;28;20207;-71
2020/12/01 11:22:25;;;;;;;21.33;16.00;;;10.10;99.90;;;;;;5070029;28;20629;-71
2020/12/01 11:24:52;;;;;;;20.60;14.80;;;10.00;99.90;;;;;;5069880;28;20280;-71
2020/12/01 11:27:18;;;;;;;16.70;14.57;;;10.10;99.90;;;;;;5062379;28;20281;-70
2020/12/01 11:29:45;;;;;;;16.03;12.70;;;10.10;99.90;;;;;;5059489;28;20265;-71
2020/12/01 11:32:12;;;;;;;20.43;14.73;;;10.10;99.90;;;;;;5054337;28;20731;-71
2020/12/01 11:34:38;;;;;;;17.83;14.23;;;10.00;99.90;;;;;;5059079;28;20252;-71
2020/12/01 11:37:05;;;;;;;16.80;12.57;;;10.10;99.90;;;;;;5068976;28;20228;-70
2020/12/01 11:39:31;;;;;;;17.47;13.83;;;10.10;99.90;;;;;;5063462;28;20268;-71
2020/12/01 11:41:58;;;;;;;17.67;13.90;;;10.20;99.90;;;;;;5069865;28;20209;-71
2020/12/01 11:44:24;;;;;;;19.43;14.33;;;10.20;99.90;;;;;;5069325;28;20807;-70
2020/12/01 11:46:52;;;;;;;17.70;12.57;;;10.10;99.90;;;;;;5069885;28;20657;-71
2020/12/01 11:49:18;;;;;;;16.07;11.47;;;10.10;99.90;;;;;;5069408;28;20276;-71
2020/12/01 11:51:47;;;;;;;14.47;11.13;;;10.10;99.90;;;;;;5070663;28;20210;-70
2020/12/01 11:54:15;;;;;;;17.10;11.40;;;10.20;99.90;;;;;;5069417;28;20202;-71
2020/12/01 11:56:41;;;;;;;18.10;10.90;;;10.30;99.90;;;;;;5070167;28;20206;-71
2020/12/01 11:59:08;;;;;;;14.50;10.60;;;10.50;99.90;;;;;;5069248;28;20302;-69
2020/12/01 12:01:35;;;;;;;15.27;10.80;;;10.50;99.90;;;;;;5068736;28;20202;-71
2020/12/01 12:04:03;;;;;;;11.33;9.23;;;10.30;99.90;;;;;;5058358;28;20735;-71
2020/12/01 12:06:29;;;;;;;20.70;13.40;;;10.10;99.90;;;;;;5059543;28;20755;-70
2020/12/01 12:08:56;;;;;;;15.43;11.63;;;10.10;99.90;;;;;;5062575;28;20210;-71
2020/12/01 12:11:22;;;;;;;13.77;11.37;;;10.10;99.90;;;;;;5069485;28;20351;-71
2020/12/01 12:13:49;;;;;;;16.20;9.93;;;10.20;99.90;;;;;;5069721;28;20742;-70
2020/12/01 12:16:16;;;;;;;12.93;9.40;;;10.30;99.90;;;;;;5056199;28;20638;-71
2020/12/01 12:18:43;;;;;;;9.50;7.90;;;10.70;99.90;;;;;;5069317;28;20238;-71
2020/12/01 12:21:10;;;;;;;9.27;7.33;;;10.50;99.90;;;;;;5062743;28;20257;-72
2020/12/01 12:23:37;;;;;;;11.30;8.20;;;10.50;99.90;;;;;;5069347;28;20210;-70
2020/12/01 12:26:03;;;;;;;10.57;8.07;;;10.50;99.90;;;;;;5065108;28;20206;-71
2020/12/01 12:28:30;;;;;;;12.37;8.43;;;10.60;99.90;;;;;;5067694;28;20272;-72
2020/12/01 12:31:01;;;;;;;11.70;8.83;;;10.60;99.90;;;;;;5066094;28;20240;-72
2020/12/01 12:33:28;;;;;;;10.73;7.20;;;10.70;99.90;;;;;;5061967;28;20301;-72
2020/12/01 12:35:55;;;;;;;11.47;7.97;;;10.80;99.90;;;;;;5071828;28;20251;-71
2020/12/01 12:38:22;;;;;;;10.87;8.27;;;10.80;99.90;;;;;;5066038;28;20758;-70
2020/12/01 12:40:49;;;;;;;9.03;6.20;;;10.90;99.90;;;;;;5073022;28;20669;-72
2020/12/01 12:43:15;;;;;;;9.17;6.93;;;10.90;99.90;;;;;;5072320;28;20206;-71
2020/12/01 12:45:42;;;;;;;9.10;6.80;;;10.90;99.90;;;;;;5073057;28;20206;-72
2020/12/01 12:48:09;;;;;;;7.93;5.73;;;11.00;99.90;;;;;;5072016;28;20206;-73
2020/12/01 12:50:35;;;;;;;7.97;6.73;;;11.20;99.90;;;;;;5071396;28;20206;-71
2020/12/01 12:53:02;;;;;;;7.50;6.13;;;11.30;99.90;;;;;;5073033;28;20203;-73
2020/12/01 12:55:29;;;;;;;8.43;6.93;;;11.50;99.90;;;;;;5072302;28;20210;-71
2020/12/01 12:57:59;;;;;;;11.13;7.50;;;11.90;99.90;;;;;;5072791;28;20709;-75
2020/12/01 13:00:25;;;;;;;10.67;7.30;;;12.10;99.90;;;;;;5067327;28;20202;-70
2020/12/01 13:02:52;;;;;;;11.50;7.23;;;12.30;99.90;;;;;;5062438;28;20210;-71
2020/12/01 13:05:19;;;;;;;9.77;6.90;;;12.10;99.90;;;;;;5065576;28;20633;-68
2020/12/01 13:07:45;;;;;;;11.13;7.63;;;12.10;99.90;;;;;;5071663;28;20565;-69
2020/12/01 13:10:12;;;;;;;12.43;9.30;;;12.10;99.90;;;;;;5065996;28;20275;-68
2020/12/01 13:12:39;;;;;;;10.27;7.77;;;12.10;99.90;;;;;;5065973;28;20203;-68
2020/12/01 13:15:06;;;;;;;14.63;8.43;;;11.80;99.90;;;;;;5067488;28;20264;-71
2020/12/01 13:17:33;;;;;;;9.50;8.17;;;11.60;99.90;;;;;;5066997;28;20662;-67